| time (UTC) | temp C | wind direction | speed KPH | gust KPH | rain 1hr cm | rain 24hr cm | rain mn cm | humidity % | barometer mb |
| 20260510143020 | 11 | 49 | 4.8 | 11.3 | 0.00 | 0.64 | 0.05 | 55 | 1016.3 |
| 20260510142520 | 11 | 8 | 4.8 | 11.3 | 0.00 | 0.64 | 0.05 | 54 | 1016.3 |
| 20260510142020 | 11 | 25 | 6.4 | 11.3 | 0.00 | 0.64 | 0.05 | 54 | 1016.4 |
| 20260510141520 | 12 | 12 | 3.2 | 11.3 | 0.00 | 0.64 | 0.05 | 55 | 1016.4 |
| 20260510141023 | 12 | 39 | 3.2 | 6.4 | 0.00 | 0.64 | 0.05 | 55 | 1016.4 |
| 20260510140524 | 11 | 5 | 4.8 | 6.4 | 0.00 | 0.64 | 0.05 | 57 | 1016.4 |
| 20260510140023 | 11 | 57 | 1.6 | 3.2 | 0.00 | 0.64 | 0.05 | 58 | 1016.4 |
| 20260510135523 | 11 | 57 | 3.2 | 6.4 | 0.00 | 0.64 | 0.05 | 59 | 1016.3 |
| 20260510135020 | 10 | 344 | 3.2 | 9.7 | 0.00 | 0.64 | 0.05 | 60 | 1016.3 |
| 20260510134524 | 10 | 34 | 3.2 | 8.0 | 0.00 | 0.64 | 0.05 | 61 | 1016.3 |
| 20260510134021 | 10 | 6 | 6.4 | 12.9 | 0.00 | 0.64 | 0.05 | 60 | 1016.4 |
| 20260510133521 | 10 | 359 | 4.8 | 12.9 | 0.00 | 0.64 | 0.05 | 61 | 1016.3 |
| 20260510133021 | 10 | 24 | 3.2 | 11.3 | 0.00 | 0.64 | 0.05 | 63 | 1016.2 |
| 20260510132521 | 10 | 359 | 3.2 | 9.7 | 0.00 | 0.64 | 0.05 | 65 | 1016.1 |
| 20260510132021 | 10 | 352 | 4.8 | 14.5 | 0.00 | 0.64 | 0.05 | 63 | 1015.9 |
| 20260510131521 | 10 | 63 | 4.8 | 11.3 | 0.00 | 0.64 | 0.05 | 63 | 1015.9 |
| 20260510131021 | 10 | 0 | 3.2 | 11.3 | 0.00 | 0.64 | 0.05 | 64 | 1015.7 |
| 20260510130516 | 10 | 40 | 6.4 | 12.9 | 0.00 | 0.64 | 0.05 | 62 | 1015.7 |
| 20260510130024 | 10 | 72 | 3.2 | 8.0 | 0.00 | 0.64 | 0.05 | 63 | 1015.7 |
| 20260510125521 | 10 | 12 | 4.8 | 11.3 | 0.00 | 0.64 | 0.05 | 65 | 1015.6 |
| 20260510125015 | 10 | 50 | 3.2 | 8.0 | 0.00 | 0.64 | 0.05 | 66 | 1015.5 |
| 20260510124522 | 10 | 63 | 3.2 | 9.7 | 0.00 | 0.64 | 0.05 | 67 | 1015.5 |
| 20260510124023 | 10 | 360 | 3.2 | 9.7 | 0.00 | 0.64 | 0.05 | 67 | 1015.5 |
| 20260510123522 | 10 | 4 | 6.4 | 14.5 | 0.00 | 0.64 | 0.05 | 68 | 1015.4 |
| 20260510123025 | 9 | 29 | 3.2 | 8.0 | 0.00 | 0.64 | 0.05 | 69 | 1015.3 |
| 20260510122522 | 9 | 359 | 3.2 | 9.7 | 0.00 | 0.64 | 0.05 | 70 | 1015.3 |
| 20260510122022 | 9 | 350 | 3.2 | 8.0 | 0.00 | 0.64 | 0.05 | 70 | 1015.3 |
| 20260510121526 | 9 | 8 | 1.6 | 6.4 | 0.00 | 0.64 | 0.05 | 71 | 1015.3 |
| 20260510121026 | 9 | 44 | 3.2 | 8.0 | 0.00 | 0.64 | 0.05 | 72 | 1015.2 |
| 20260510120525 | 9 | 59 | 3.2 | 8.0 | 0.00 | 0.64 | 0.05 | 71 | 1015.2 |
| 20260510120027 | 9 | 342 | 4.8 | 12.9 | 0.00 | 0.64 | 0.05 | 71 | 1015.1 |
| 20260510115517 | 8 | 9 | 1.6 | 8.0 | 0.00 | 0.64 | 0.05 | 73 | 1014.9 |
| 20260510115018 | 8 | 327 | 3.2 | 12.9 | 0.00 | 0.64 | 0.05 | 74 | 1014.7 |
| 20260510114525 | 8 | 39 | 1.6 | 6.4 | 0.00 | 0.64 | 0.05 | 74 | 1014.6 |
| 20260510114025 | 8 | 60 | 1.6 | 4.8 | 0.00 | 0.64 | 0.05 | 74 | 1014.5 |
| 20260510113526 | 8 | 16 | 1.6 | 4.8 | 0.00 | 0.64 | 0.05 | 74 | 1014.4 |
| 20260510113025 | 8 | 12 | 1.6 | 6.4 | 0.00 | 0.64 | 0.05 | 74 | 1014.4 |
| 20260510112517 | 8 | 10 | 1.6 | 8.0 | 0.00 | 0.64 | 0.05 | 75 | 1014.2 |
| 20260510112026 | 8 | 348 | 1.6 | 4.8 | 0.00 | 0.64 | 0.05 | 76 | 1014.1 |
| 20260510111526 | 8 | 89 | 3.2 | 4.8 | 0.00 | 0.64 | 0.05 | 77 | 1014.0 |
| 20260510111026 | 8 | 19 | 3.2 | 6.4 | 0.00 | 0.64 | 0.05 | 77 | 1014.0 |
| 20260510110526 | 8 | 42 | 3.2 | 8.0 | 0.00 | 0.64 | 0.05 | 78 | 1014.0 |
| 20260510110017 | 8 | 1 | 3.2 | 8.0 | 0.00 | 0.64 | 0.05 | 79 | 1013.9 |
| 20260510105523 | 8 | 358 | 4.8 | 11.3 | 0.00 | 0.64 | 0.05 | 79 | 1013.7 |
| 20260510105017 | 8 | 2 | 3.2 | 9.7 | 0.00 | 0.64 | 0.05 | 80 | 1013.5 |
| 20260510104517 | 8 | 13 | 3.2 | 11.3 | 0.00 | 0.64 | 0.05 | 81 | 1013.4 |
| 20260510104026 | 8 | 45 | 3.2 | 8.0 | 0.00 | 0.64 | 0.05 | 82 | 1013.3 |
| 20260510103518 | 8 | 23 | 3.2 | 8.0 | 0.00 | 0.64 | 0.05 | 82 | 1013.3 |
| 20260510103026 | 8 | 21 | 1.6 | 4.8 | 0.00 | 0.64 | 0.05 | 83 | 1013.1 |
| 20260510102526 | 8 | 2 | 3.2 | 6.4 | 0.00 | 0.64 | 0.05 | 83 | 1013.1 |
| 20260510102028 | 8 | 45 | 3.2 | 4.8 | 0.00 | 0.64 | 0.05 | 83 | 1013.0 |
| 20260510101527 | 8 | 29 | 3.2 | 4.8 | 0.00 | 0.64 | 0.05 | 83 | 1012.9 |
| 20260510101027 | 8 | 41 | 1.6 | 6.4 | 0.00 | 0.64 | 0.05 | 84 | 1012.8 |
| 20260510100527 | 8 | 9 | 1.6 | 4.8 | 0.00 | 0.64 | 0.05 | 84 | 1012.9 |
| 20260510100028 | 8 | 16 | 1.6 | 6.4 | 0.00 | 0.64 | 0.05 | 84 | 1012.9 |
| 20260510095527 | 8 | 19 | 3.2 | 4.8 | 0.00 | 0.64 | 0.05 | 84 | 1012.8 |
| 20260510095027 | 8 | 347 | 3.2 | 6.4 | 0.00 | 0.64 | 0.05 | 84 | 1012.8 |
| 20260510094527 | 8 | 27 | 1.6 | 3.2 | 0.00 | 0.64 | 0.05 | 84 | 1012.7 |
| 20260510094028 | 8 | 356 | 1.6 | 6.4 | 0.00 | 0.64 | 0.05 | 84 | 1012.6 |
| 20260510093528 | 8 | 336 | 0.0 | 3.2 | 0.00 | 0.64 | 0.05 | 84 | 1012.5 |
| 20260510093027 | 8 | 355 | 1.6 | 4.8 | 0.00 | 0.64 | 0.05 | 84 | 1012.5 |
| 20260510092528 | 8 | 20 | 1.6 | 3.2 | 0.00 | 0.64 | 0.05 | 84 | 1012.3 |
| 20260510092028 | 9 | 344 | 1.6 | 4.8 | 0.00 | 0.64 | 0.05 | 84 | 1012.2 |
| 20260510091528 | 9 | 339 | 3.2 | 6.4 | 0.00 | 0.64 | 0.05 | 83 | 1012.1 |
| 20260510091028 | 9 | 11 | 3.2 | 4.8 | 0.00 | 0.64 | 0.05 | 84 | 1012.0 |
| 20260510090529 | 9 | 4 | 1.6 | 4.8 | 0.00 | 0.64 | 0.05 | 84 | 1012.0 |
| 20260510090029 | 9 | 343 | 1.6 | 3.2 | 0.00 | 0.64 | 0.05 | 85 | 1012.0 |
| 20260510085528 | 8 | 353 | 3.2 | 6.4 | 0.00 | 0.64 | 0.05 | 86 | 1011.9 |
| 20260510085028 | 8 | 332 | 1.6 | 3.2 | 0.00 | 0.64 | 0.05 | 86 | 1011.8 |
| 20260510084528 | 8 | 321 | 1.6 | 3.2 | 0.00 | 0.64 | 0.05 | 87 | 1011.6 |
| 20260510084029 | 8 | 317 | 0.0 | 3.2 | 0.00 | 0.64 | 0.05 | 87 | 1011.6 |
| 20260510083528 | 8 | 343 | 0.0 | 3.2 | 0.00 | 0.64 | 0.05 | 87 | 1011.6 |
| 20260510083029 | 8 | 336 | 0.0 | 3.2 | 0.00 | 0.64 | 0.05 | 87 | 1011.5 |
| 20260510082529 | 8 | 336 | 1.6 | 3.2 | 0.00 | 0.64 | 0.05 | 87 | 1011.4 |
| 20260510082029 | 8 | 340 | 1.6 | 3.2 | 0.00 | 0.64 | 0.05 | 87 | 1011.4 |
| 20260510081529 | 8 | 338 | 1.6 | 3.2 | 0.00 | 0.64 | 0.05 | 87 | 1011.4 |
| 20260510081030 | 8 | 0.0 | 0.0 | 0.00 | 0.64 | 0.05 | 87 | 1011.3 | |
| 20260510080529 | 8 | 0.0 | 0.0 | 0.00 | 0.64 | 0.05 | 86 | 1011.2 | |
| 20260510080029 | 8 | 312 | 0.0 | 1.6 | 0.00 | 0.64 | 0.05 | 86 | 1011.0 |
| 20260510075529 | 8 | 315 | 1.6 | 3.2 | 0.00 | 0.64 | 0.05 | 87 | 1010.9 |
| 20260510075030 | 8 | 333 | 1.6 | 3.2 | 0.00 | 0.64 | 0.05 | 86 | 1010.7 |
| 20260510074529 | 8 | 0.0 | 0.0 | 0.00 | 0.64 | 0.05 | 85 | 1010.6 | |
| 20260510074029 | 8 | 0.0 | 0.0 | 0.00 | 0.64 | 0.05 | 85 | 1010.6 | |
| 20260510073530 | 9 | 0.0 | 0.0 | 0.00 | 0.64 | 0.05 | 85 | 1010.5 | |
| 20260510073031 | 9 | 0.0 | 0.0 | 0.00 | 0.64 | 0.05 | 85 | 1010.5 | |
| 20260510072530 | 9 | 11 | 0.0 | 1.6 | 0.00 | 0.64 | 0.05 | 85 | 1010.4 |
| 20260510072030 | 9 | 321 | 0.0 | 3.2 | 0.00 | 0.64 | 0.05 | 85 | 1010.4 |
| 20260510071531 | 9 | 329 | 0.0 | 4.8 | 0.00 | 0.64 | 0.05 | 84 | 1010.4 |
| 20260510071031 | 10 | 321 | 0.0 | 3.2 | 0.00 | 0.64 | 0.05 | 84 | 1010.4 |
| 20260510070531 | 10 | 334 | 0.0 | 1.6 | 0.00 | 0.64 | 0.05 | 83 | 1010.3 |
| 20260510070031 | 10 | 324 | 1.6 | 3.2 | 0.00 | 0.64 | 0.05 | 83 | 1010.3 |
| 20260510065516 | 10 | 345 | 1.6 | 3.2 | 0.00 | 0.64 | 0.05 | 82 | 1010.2 |
| 20260510065017 | 10 | 340 | 3.2 | 4.8 | 0.00 | 0.64 | 0.05 | 81 | 1010.2 |
| 20260510064531 | 10 | 341 | 1.6 | 4.8 | 0.00 | 0.64 | 0.05 | 81 | 1010.1 |
| 20260510064031 | 10 | 31 | 1.6 | 3.2 | 0.00 | 0.64 | 0.05 | 80 | 1010.1 |
| 20260510063531 | 10 | 60 | 1.6 | 3.2 | 0.00 | 0.64 | 0.05 | 80 | 1010.0 |
| 20260510063031 | 10 | 66 | 1.6 | 4.8 | 0.00 | 0.64 | 0.05 | 79 | 1010.0 |
| 20260510062531 | 10 | 67 | 1.6 | 4.8 | 0.00 | 0.64 | 0.05 | 79 | 1010.0 |
| 20260510062032 | 10 | 56 | 3.2 | 6.4 | 0.00 | 0.64 | 0.05 | 79 | 1010.0 |
| 20260510061531 | 10 | 64 | 3.2 | 6.4 | 0.00 | 0.64 | 0.05 | 79 | 1009.9 |
| 20260510061017 | 10 | 69 | 3.2 | 4.8 | 0.00 | 0.64 | 0.05 | 79 | 1009.9 |
| 20260510060517 | 10 | 80 | 3.2 | 8.0 | 0.00 | 0.64 | 0.05 | 81 | 1009.9 |
| 20260510060031 | 10 | 40 | 3.2 | 4.8 | 0.00 | 0.64 | 0.05 | 82 | 1010.0 |
| 20260510055518 | 10 | 59 | 3.2 | 4.8 | 0.03 | 0.64 | 0.05 | 83 | 1009.9 |
| 20260510055018 | 11 | 64 | 3.2 | 8.0 | 0.05 | 0.64 | 0.05 | 84 | 1009.8 |
| 20260510054517 | 11 | 77 | 4.8 | 11.3 | 0.05 | 0.64 | 0.05 | 85 | 1009.8 |
| 20260510054017 | 11 | 81 | 4.8 | 9.7 | 0.05 | 0.64 | 0.05 | 87 | 1009.8 |
| 20260510053518 | 12 | 59 | 6.4 | 14.5 | 0.05 | 0.64 | 0.05 | 89 | 1009.7 |
| 20260510053017 | 12 | 24 | 3.2 | 8.0 | 0.05 | 0.64 | 0.05 | 90 | 1009.6 |
| 20260510052517 | 13 | 351 | 1.6 | 6.4 | 0.05 | 0.64 | 0.05 | 90 | 1009.2 |
| 20260510052017 | 13 | 23 | 1.6 | 4.8 | 0.05 | 0.64 | 0.05 | 89 | 1009.0 |
| 20260510051517 | 13 | 29 | 1.6 | 3.2 | 0.05 | 0.64 | 0.05 | 88 | 1008.8 |
| 20260510051018 | 13 | 358 | 0.0 | 3.2 | 0.05 | 0.64 | 0.05 | 87 | 1008.6 |
| 20260510050517 | 13 | 343 | 1.6 | 3.2 | 0.05 | 0.64 | 0.05 | 87 | 1008.4 |
| 20260510050018 | 13 | 38 | 1.6 | 8.0 | 0.05 | 0.64 | 0.05 | 86 | 1008.4 |
| 20260510045518 | 13 | 319 | 3.2 | 6.4 | 0.03 | 0.61 | 0.03 | 86 | 1008.5 |
| 20260510045018 | 13 | 9 | 1.6 | 8.0 | 0.00 | 0.61 | 0.00 | 86 | 1008.3 |
| 20260510044518 | 13 | 1 | 3.2 | 4.8 | 0.00 | 0.58 | 0.00 | 86 | 1008.2 |
| 20260510044019 | 13 | 5 | 1.6 | 4.8 | 0.00 | 0.58 | 0.00 | 85 | 1008.0 |
| 20260510043518 | 13 | 348 | 1.6 | 8.0 | 0.00 | 0.58 | 0.00 | 84 | 1007.7 |
| 20260510043018 | 13 | 207 | 1.6 | 4.8 | 0.00 | 0.58 | 0.00 | 84 | 1007.2 |
| 20260510042518 | 13 | 215 | 0.0 | 3.2 | 0.00 | 0.58 | 0.00 | 83 | 1007.1 |
| 20260510042018 | 13 | 201 | 1.6 | 4.8 | 0.00 | 0.58 | 0.00 | 83 | 1007.1 |
| 20260510041518 | 13 | 208 | 4.8 | 8.0 | 0.00 | 0.58 | 0.00 | 83 | 1007.1 |
| 20260510041019 | 13 | 214 | 1.6 | 4.8 | 0.00 | 0.58 | 0.00 | 83 | 1007.0 |
| 20260510040520 | 14 | 210 | 1.6 | 4.8 | 0.00 | 0.58 | 0.00 | 84 | 1006.9 |
| 20260510040018 | 14 | 221 | 3.2 | 6.4 | 0.00 | 0.58 | 0.00 | 84 | 1006.9 |
| 20260510035519 | 14 | 204 | 1.6 | 6.4 | 0.00 | 0.58 | 0.00 | 84 | 1006.9 |
| 20260510035019 | 14 | 209 | 3.2 | 6.4 | 0.00 | 0.58 | 0.00 | 84 | 1006.9 |
| 20260510034519 | 14 | 217 | 1.6 | 4.8 | 0.00 | 0.61 | 0.00 | 83 | 1006.9 |
| 20260510034019 | 14 | 209 | 3.2 | 9.7 | 0.00 | 0.61 | 0.00 | 83 | 1007.0 |
| 20260510033519 | 13 | 205 | 6.4 | 14.5 | 0.00 | 0.61 | 0.00 | 84 | 1007.0 |
| 20260510033019 | 13 | 195 | 3.2 | 8.0 | 0.00 | 0.61 | 0.00 | 84 | 1007.0 |
| 20260510032520 | 13 | 217 | 3.2 | 6.4 | 0.00 | 0.61 | 0.00 | 84 | 1007.1 |
| 20260510032020 | 13 | 203 | 4.8 | 12.9 | 0.00 | 0.61 | 0.00 | 85 | 1007.1 |
| 20260510031519 | 13 | 211 | 3.2 | 6.4 | 0.00 | 0.61 | 0.00 | 87 | 1007.0 |
| 20260510031020 | 13 | 210 | 3.2 | 9.7 | 0.00 | 0.61 | 0.00 | 90 | 1006.9 |
| 20260510030520 | 12 | 194 | 4.8 | 9.7 | 0.00 | 0.61 | 0.00 | 91 | 1007.0 |
| 20260510030020 | 12 | 198 | 3.2 | 8.0 | 0.00 | 0.61 | 0.00 | 92 | 1007.0 |
| 20260510025520 | 12 | 254 | 0.0 | 1.6 | 0.00 | 0.61 | 0.00 | 92 | 1006.9 |
| 20260510025020 | 12 | 203 | 0.0 | 0.0 | 0.00 | 0.61 | 0.00 | 92 | 1006.9 |
| 20260510024520 | 12 | 225 | 1.6 | 6.4 | 0.00 | 0.61 | 0.00 | 93 | 1006.8 |
| 20260510024020 | 12 | 233 | 1.6 | 6.4 | 0.00 | 0.61 | 0.00 | 93 | 1006.8 |
| 20260510023521 | 12 | 318 | 0.0 | 3.2 | 0.00 | 0.61 | 0.00 | 93 | 1006.9 |
| 20260510023020 | 12 | 223 | 1.6 | 3.2 | 0.00 | 0.61 | 0.00 | 94 | 1007.0 |
| 20260510022520 | 12 | 208 | 3.2 | 8.0 | 0.00 | 0.61 | 0.00 | 94 | 1007.2 |
| 20260510022020 | 12 | 226 | 3.2 | 11.3 | 0.00 | 0.61 | 0.00 | 94 | 1007.3 |
| 20260510021521 | 12 | 218 | 1.6 | 8.0 | 0.00 | 0.61 | 0.00 | 94 | 1007.1 |
| 20260510021021 | 12 | 267 | 0.0 | 3.2 | 0.00 | 0.61 | 0.00 | 94 | 1006.7 |
| 20260510020520 | 12 | 248 | 0.0 | 1.6 | 0.00 | 0.61 | 0.00 | 93 | 1006.7 |
| 20260510020021 | 12 | 227 | 0.0 | 1.6 | 0.00 | 0.61 | 0.00 | 93 | 1006.6 |
| 20260510015521 | 12 | 0.0 | 0.0 | 0.00 | 0.61 | 0.00 | 93 | 1006.4 | |
| 20260510015021 | 12 | 0.0 | 0.0 | 0.00 | 0.61 | 0.00 | 92 | 1006.4 | |
| 20260510014521 | 12 | 0.0 | 0.0 | 0.00 | 0.61 | 0.00 | 92 | 1006.4 | |
| 20260510014021 | 12 | 0.0 | 0.0 | 0.00 | 0.61 | 0.00 | 92 | 1006.4 | |
| 20260510013521 | 12 | 0.0 | 0.0 | 0.00 | 0.61 | 0.00 | 91 | 1006.4 | |
| 20260510013021 | 12 | 338 | 0.0 | 1.6 | 0.00 | 0.61 | 0.00 | 91 | 1006.3 |
| 20260510012521 | 12 | 0.0 | 0.0 | 0.00 | 0.61 | 0.00 | 90 | 1006.3 | |
| 20260510012021 | 13 | 0.0 | 0.0 | 0.00 | 0.61 | 0.00 | 90 | 1006.2 | |
| 20260510011522 | 13 | 208 | 0.0 | 1.6 | 0.00 | 0.61 | 0.00 | 89 | 1006.2 |
| 20260510011021 | 13 | 238 | 0.0 | 4.8 | 0.00 | 0.61 | 0.00 | 89 | 1006.1 |
| 20260510010522 | 13 | 176 | 0.0 | 3.2 | 0.00 | 0.61 | 0.00 | 89 | 1006.1 |
| 20260510010022 | 13 | 201 | 3.2 | 8.0 | 0.00 | 0.61 | 0.00 | 89 | 1006.1 |
| 20260510005522 | 13 | 188 | 1.6 | 6.4 | 0.00 | 0.61 | 0.00 | 89 | 1006.0 |
| 20260510005022 | 13 | 204 | 3.2 | 6.4 | 0.00 | 0.61 | 0.00 | 89 | 1006.0 |
| 20260510004522 | 13 | 217 | 3.2 | 4.8 | 0.00 | 0.61 | 0.00 | 90 | 1006.0 |
| 20260510004023 | 13 | 214 | 3.2 | 6.4 | 0.00 | 0.61 | 0.00 | 90 | 1006.0 |
| 20260510003516 | 13 | 214 | 3.2 | 8.0 | 0.00 | 0.61 | 0.00 | 90 | 1006.0 |
| 20260510003016 | 13 | 210 | 4.8 | 11.3 | 0.00 | 0.64 | 0.00 | 90 | 1006.1 |
| 20260510002522 | 13 | 213 | 3.2 | 6.4 | 0.00 | 0.64 | 0.00 | 90 | 1006.1 |
| 20260510002017 | 13 | 210 | 3.2 | 9.7 | 0.00 | 0.64 | 0.00 | 90 | 1006.0 |
| 20260510001523 | 14 | 225 | 3.2 | 6.4 | 0.00 | 0.64 | 0.00 | 89 | 1006.0 |
| 20260510001017 | 14 | 205 | 3.2 | 11.3 | 0.00 | 0.64 | 0.00 | 89 | 1005.9 |
| 20260510000523 | 14 | 193 | 3.2 | 8.0 | 0.03 | 0.64 | 0.00 | 89 | 1005.9 |
| 20260510000017 | 14 | 192 | 3.2 | 9.7 | 0.03 | 0.64 | 0.00 | 89 | 1005.8 |
| 20260509235523 | 14 | 200 | 6.4 | 12.9 | 0.03 | 0.64 | 0.64 | 90 | 1005.8 |
| 20260509235017 | 14 | 205 | 4.8 | 11.3 | 0.03 | 0.66 | 0.64 | 92 | 1005.8 |
| 20260509234517 | 14 | 207 | 3.2 | 9.7 | 0.03 | 0.66 | 0.64 | 92 | 1005.7 |
| 20260509234017 | 13 | 191 | 3.2 | 11.3 | 0.10 | 0.69 | 0.64 | 93 | 1005.7 |
| 20260509233523 | 13 | 200 | 1.6 | 4.8 | 0.23 | 0.69 | 0.64 | 93 | 1005.7 |
| 20260509233017 | 13 | 220 | 3.2 | 8.0 | 0.51 | 0.69 | 0.64 | 93 | 1005.7 |
| 20260509232518 | 13 | 208 | 4.8 | 12.9 | 0.53 | 0.71 | 0.64 | 93 | 1005.6 |
| 20260509232018 | 13 | 204 | 4.8 | 12.9 | 0.58 | 0.71 | 0.64 | 93 | 1005.6 |
| 20260509231517 | 13 | 185 | 6.4 | 14.5 | 0.58 | 0.71 | 0.64 | 93 | 1005.6 |
| 20260509231018 | 13 | 147 | 6.4 | 12.9 | 0.58 | 0.74 | 0.64 | 94 | 1005.8 |
| 20260509230518 | 13 | 184 | 4.8 | 9.7 | 0.58 | 0.74 | 0.64 | 93 | 1005.8 |
| 20260509230024 | 13 | 233 | 3.2 | 6.4 | 0.58 | 0.76 | 0.64 | 93 | 1005.7 |
| 20260509225523 | 13 | 29 | 3.2 | 6.4 | 0.58 | 0.76 | 0.64 | 93 | 1005.6 |
| 20260509225024 | 13 | 47 | 3.2 | 8.0 | 0.58 | 0.79 | 0.64 | 92 | 1005.7 |
| 20260509224518 | 14 | 212 | 4.8 | 19.3 | 0.56 | 0.79 | 0.61 | 90 | 1006.0 |
| 20260509224015 | 15 | 151 | 8.0 | 17.7 | 0.48 | 0.71 | 0.53 | 87 | 1005.8 |
| 20260509223518 | 17 | 209 | 8.0 | 20.9 | 0.36 | 0.61 | 0.41 | 82 | 1005.5 |
| 20260509223020 | 20 | 278 | 8.0 | 16.1 | 0.10 | 0.36 | 0.15 | 71 | 1005.0 |
| 20260509222518 | 20 | 236 | 6.4 | 17.7 | 0.05 | 0.33 | 0.10 | 58 | 1003.4 |
| 20260509222018 | 21 | 214 | 4.8 | 16.1 | 0.00 | 0.28 | 0.05 | 54 | 1002.7 |
| 20260509221519 | 21 | 203 | 8.0 | 24.1 | 0.00 | 0.28 | 0.05 | 53 | 1002.6 |
| 20260509221019 | 21 | 193 | 9.7 | 20.9 | 0.00 | 0.28 | 0.05 | 52 | 1002.7 |
| 20260509220518 | 21 | 197 | 9.7 | 22.5 | 0.00 | 0.28 | 0.05 | 52 | 1002.8 |
| 20260509220019 | 21 | 219 | 6.4 | 17.7 | 0.00 | 0.28 | 0.05 | 52 | 1002.7 |
| 20260509215518 | 21 | 209 | 6.4 | 20.9 | 0.00 | 0.28 | 0.05 | 53 | 1002.8 |
| 20260509215017 | 21 | 198 | 11.3 | 24.1 | 0.00 | 0.28 | 0.05 | 52 | 1002.7 |
| 20260509214516 | 21 | 194 | 6.4 | 19.3 | 0.00 | 0.28 | 0.05 | 52 | 1002.6 |
| 20260509214015 | 22 | 193 | 8.0 | 17.7 | 0.00 | 0.28 | 0.05 | 52 | 1002.5 |
| 20260509213519 | 22 | 191 | 6.4 | 16.1 | 0.00 | 0.28 | 0.05 | 51 | 1002.4 |
| 20260509213019 | 22 | 205 | 8.0 | 17.7 | 0.00 | 0.28 | 0.05 | 50 | 1002.4 |
| 20260509212521 | 22 | 208 | 6.4 | 14.5 | 0.00 | 0.28 | 0.05 | 53 | 1002.3 |
| 20260509212019 | 22 | 194 | 9.7 | 22.5 | 0.00 | 0.28 | 0.05 | 52 | 1002.3 |
| 20260509211519 | 22 | 203 | 8.0 | 22.5 | 0.00 | 0.28 | 0.05 | 52 | 1002.4 |
| 20260509211016 | 22 | 197 | 6.4 | 17.7 | 0.00 | 0.28 | 0.05 | 54 | 1002.5 |
| 20260509210516 | 21 | 201 | 8.0 | 16.1 | 0.00 | 0.28 | 0.05 | 54 | 1002.5 |
| 20260509210017 | 22 | 199 | 9.7 | 20.9 | 0.00 | 0.28 | 0.05 | 54 | 1002.7 |
| 20260509205520 | 22 | 191 | 8.0 | 16.1 | 0.00 | 0.28 | 0.05 | 55 | 1002.7 |
| 20260509205016 | 21 | 197 | 8.0 | 14.5 | 0.00 | 0.28 | 0.05 | 54 | 1002.8 |
| 20260509204520 | 21 | 207 | 6.4 | 16.1 | 0.00 | 0.28 | 0.05 | 55 | 1002.9 |
| 20260509204018 | 21 | 199 | 9.7 | 19.3 | 0.00 | 0.28 | 0.05 | 55 | 1003.0 |
| 20260509203520 | 21 | 195 | 11.3 | 27.4 | 0.00 | 0.28 | 0.05 | 55 | 1003.1 |
| 20260509203018 | 21 | 200 | 6.4 | 17.7 | 0.00 | 0.28 | 0.05 | 56 | 1003.2 |
| 20260509202517 | 21 | 199 | 9.7 | 22.5 | 0.00 | 0.28 | 0.05 | 55 | 1003.3 |
| 20260509202017 | 21 | 204 | 8.0 | 24.1 | 0.00 | 0.28 | 0.05 | 56 | 1003.4 |
| 20260509201517 | 21 | 194 | 9.7 | 19.3 | 0.00 | 0.30 | 0.05 | 56 | 1003.5 |
| 20260509201017 | 21 | 200 | 11.3 | 27.4 | 0.00 | 0.30 | 0.05 | 55 | 1003.5 |
| 20260509200518 | 21 | 200 | 8.0 | 17.7 | 0.00 | 0.30 | 0.05 | 56 | 1003.7 |
| 20260509200017 | 21 | 198 | 9.7 | 22.5 | 0.00 | 0.30 | 0.05 | 56 | 1003.7 |
| 20260509195518 | 21 | 198 | 11.3 | 20.9 | 0.00 | 0.30 | 0.05 | 55 | 1003.7 |
| 20260509195017 | 21 | 194 | 9.7 | 19.3 | 0.00 | 0.30 | 0.05 | 56 | 1003.7 |
| 20260509194516 | 21 | 203 | 9.7 | 19.3 | 0.00 | 0.30 | 0.05 | 56 | 1003.7 |
| 20260509194018 | 21 | 219 | 6.4 | 16.1 | 0.00 | 0.30 | 0.05 | 58 | 1003.9 |
| 20260509193522 | 21 | 203 | 8.0 | 14.5 | 0.00 | 0.30 | 0.05 | 59 | 1004.0 |
| 20260509193018 | 21 | 200 | 11.3 | 20.9 | 0.00 | 0.30 | 0.05 | 58 | 1004.0 |
| 20260509192518 | 21 | 193 | 8.0 | 19.3 | 0.00 | 0.30 | 0.05 | 58 | 1004.0 |
| 20260509192018 | 21 | 208 | 8.0 | 19.3 | 0.00 | 0.30 | 0.05 | 59 | 1004.1 |
| 20260509191518 | 20 | 206 | 8.0 | 19.3 | 0.00 | 0.30 | 0.05 | 60 | 1004.2 |
| 20260509191019 | 20 | 202 | 8.0 | 19.3 | 0.00 | 0.30 | 0.05 | 59 | 1004.3 |
| 20260509190518 | 20 | 202 | 8.0 | 16.1 | 0.00 | 0.30 | 0.05 | 60 | 1004.3 |
| 20260509190022 | 20 | 201 | 6.4 | 16.1 | 0.00 | 0.30 | 0.05 | 60 | 1004.4 |
| 20260509185522 | 20 | 202 | 6.4 | 14.5 | 0.00 | 0.30 | 0.05 | 61 | 1004.5 |
| 20260509185019 | 20 | 202 | 9.7 | 20.9 | 0.00 | 0.30 | 0.05 | 61 | 1004.6 |
| 20260509184516 | 20 | 205 | 8.0 | 14.5 | 0.00 | 0.30 | 0.05 | 61 | 1004.7 |
| 20260509184016 | 20 | 200 | 8.0 | 19.3 | 0.00 | 0.30 | 0.05 | 62 | 1004.7 |
| 20260509183519 | 19 | 201 | 8.0 | 24.1 | 0.00 | 0.30 | 0.05 | 62 | 1004.8 |
| 20260509183019 | 19 | 209 | 8.0 | 22.5 | 0.00 | 0.30 | 0.05 | 62 | 1004.8 |
| 20260509182520 | 19 | 207 | 9.7 | 20.9 | 0.00 | 0.30 | 0.05 | 61 | 1004.8 |
| 20260509182019 | 19 | 201 | 9.7 | 22.5 | 0.00 | 0.30 | 0.05 | 62 | 1004.8 |
| 20260509181517 | 18 | 199 | 9.7 | 19.3 | 0.00 | 0.30 | 0.05 | 62 | 1004.8 |
| 20260509181016 | 18 | 205 | 9.7 | 20.9 | 0.00 | 0.30 | 0.05 | 62 | 1004.8 |
| 20260509180516 | 19 | 196 | 8.0 | 16.1 | 0.00 | 0.30 | 0.05 | 62 | 1004.7 |
| 20260509180016 | 19 | 204 | 8.0 | 19.3 | 0.00 | 0.30 | 0.05 | 62 | 1004.7 |
| 20260509175516 | 19 | 215 | 6.4 | 14.5 | 0.00 | 0.30 | 0.05 | 63 | 1004.8 |
| 20260509175017 | 19 | 205 | 8.0 | 24.1 | 0.00 | 0.30 | 0.05 | 63 | 1004.8 |
| 20260509174516 | 19 | 199 | 6.4 | 17.7 | 0.00 | 0.30 | 0.05 | 64 | 1004.8 |
| 20260509174016 | 18 | 211 | 4.8 | 12.9 | 0.00 | 0.30 | 0.05 | 65 | 1004.9 |
| 20260509173520 | 18 | 205 | 8.0 | 19.3 | 0.00 | 0.30 | 0.05 | 63 | 1005.0 |
| 20260509173020 | 18 | 203 | 8.0 | 16.1 | 0.00 | 0.30 | 0.05 | 62 | 1005.2 |
| 20260509172520 | 18 | 216 | 4.8 | 17.7 | 0.00 | 0.30 | 0.05 | 65 | 1005.1 |
| 20260509172023 | 18 | 203 | 8.0 | 16.1 | 0.00 | 0.30 | 0.05 | 65 | 1005.1 |
| 20260509171517 | 18 | 199 | 6.4 | 12.9 | 0.00 | 0.30 | 0.05 | 66 | 1005.1 |
| 20260509171017 | 18 | 215 | 6.4 | 16.1 | 0.00 | 0.30 | 0.05 | 66 | 1005.1 |
| 20260509170517 | 18 | 195 | 8.0 | 16.1 | 0.00 | 0.30 | 0.05 | 66 | 1005.1 |
| 20260509170017 | 18 | 200 | 8.0 | 17.7 | 0.00 | 0.30 | 0.05 | 66 | 1005.1 |
| 20260509165517 | 18 | 202 | 6.4 | 14.5 | 0.00 | 0.30 | 0.05 | 67 | 1005.1 |
| 20260509165017 | 18 | 201 | 6.4 | 14.5 | 0.00 | 0.30 | 0.05 | 67 | 1005.2 |
| 20260509164518 | 17 | 208 | 4.8 | 9.7 | 0.00 | 0.30 | 0.05 | 68 | 1005.4 |
| 20260509164017 | 17 | 200 | 6.4 | 12.9 | 0.00 | 0.30 | 0.05 | 68 | 1005.3 |
| 20260509163517 | 17 | 199 | 8.0 | 14.5 | 0.00 | 0.30 | 0.05 | 67 | 1005.3 |
| 20260509163018 | 17 | 202 | 6.4 | 14.5 | 0.00 | 0.30 | 0.05 | 68 | 1005.3 |
| 20260509162517 | 17 | 217 | 6.4 | 17.7 | 0.00 | 0.30 | 0.05 | 69 | 1005.2 |
| 20260509162017 | 17 | 212 | 4.8 | 9.7 | 0.00 | 0.30 | 0.05 | 70 | 1005.3 |
| 20260509161518 | 17 | 198 | 6.4 | 14.5 | 0.00 | 0.30 | 0.05 | 69 | 1005.4 |
| 20260509161018 | 17 | 201 | 6.4 | 12.9 | 0.00 | 0.30 | 0.05 | 69 | 1005.5 |
| 20260509160518 | 17 | 208 | 6.4 | 12.9 | 0.00 | 0.30 | 0.05 | 68 | 1005.7 |
| 20260509160018 | 17 | 217 | 6.4 | 14.5 | 0.00 | 0.30 | 0.05 | 70 | 1005.8 |
| 20260509155518 | 17 | 203 | 3.2 | 9.7 | 0.00 | 0.30 | 0.05 | 71 | 1006.0 |
| 20260509155018 | 16 | 196 | 4.8 | 9.7 | 0.00 | 0.30 | 0.05 | 71 | 1006.0 |
| 20260509154530 | 16 | 230 | 3.2 | 8.0 | 0.00 | 0.30 | 0.05 | 73 | 1006.2 |
| 20260509154019 | 16 | 197 | 4.8 | 12.9 | 0.00 | 0.30 | 0.05 | 74 | 1006.2 |
| 20260509153518 | 16 | 212 | 4.8 | 11.3 | 0.00 | 0.30 | 0.05 | 75 | 1006.2 |
| 20260509153018 | 16 | 225 | 6.4 | 16.1 | 0.00 | 0.30 | 0.05 | 75 | 1006.1 |
| 20260509152518 | 16 | 200 | 6.4 | 14.5 | 0.00 | 0.30 | 0.05 | 76 | 1006.2 |
| 20260509152019 | 16 | 239 | 3.2 | 9.7 | 0.00 | 0.30 | 0.05 | 78 | 1006.2 |
| 20260509151531 | 15 | 198 | 4.8 | 8.0 | 0.00 | 0.30 | 0.05 | 77 | 1006.2 |
| 20260509151019 | 15 | 226 | 3.2 | 8.0 | 0.00 | 0.30 | 0.05 | 80 | 1006.3 |
| 20260509150520 | 15 | 194 | 4.8 | 11.3 | 0.00 | 0.30 | 0.05 | 80 | 1006.2 |
| 20260509150019 | 15 | 205 | 6.4 | 16.1 | 0.00 | 0.30 | 0.05 | 80 | 1006.2 |
| 20260509145519 | 15 | 206 | 4.8 | 12.9 | 0.00 | 0.30 | 0.05 | 80 | 1006.1 |
| 20260509145019 | 15 | 212 | 4.8 | 12.9 | 0.00 | 0.30 | 0.05 | 80 | 1006.1 |
| 20260509144519 | 15 | 199 | 6.4 | 17.7 | 0.00 | 0.30 | 0.05 | 81 | 1006.1 |
| 20260509144019 | 15 | 193 | 6.4 | 16.1 | 0.00 | 0.30 | 0.05 | 82 | 1006.1 |
| 20260509143519 | 15 | 194 | 6.4 | 17.7 | 0.00 | 0.30 | 0.05 | 82 | 1006.2 |